KDTO

Denton Enterprise Airport

Denton, Texas, USA
METAR KDTO 191253Z 07004KT 10SM -RA OVC023 13/12 A3023 RMK AO2 SLP233 P0006 T01330122
Observed Flight Rules
Oct-19 @ 12:53 UTC (29 minutes ago) Marginal Visual Flight Rules
Wind Visibility Clouds Conditions
70° at 4 knots 10 miles
  • Overcast at 2,300' AGL
  • Light Rain
Temperatures Readings Precipitation
Current 13°C / 55°F
Dewpoint 12°C / 54°F
Humidity 94%
Altimeter 30.23" Hg
Pressure 1023.3 hPa
Elevation 196
Current Rain 0.06
METAR KDTO 191253Z 07004KT 10SM -RA OVC023 13/12 A3023 RMK AO2 SLP233 P0006 T01330122
Observed Flight Rules
Oct-19 @ 12:53 UTC
(29 minutes ago)
MVFR
Wind Visibility
70° at 4 knots 10 miles
Clouds
  • Overcast at 2,300' AGL
Conditions
  • Light Rain
Temperature Dewpoint
13°C / 55°F 12°C / 54°F
Humidity Altimeter Pressure
94% 30.23" Hg 1023.3 hPa
Current Rain
0.06